createdAt,value
2023-01-13T00:00:08.974Z,1002.62
2023-01-13T00:01:08.954Z,1002.64
2023-01-13T00:02:08.986Z,1002.59
2023-01-13T00:03:08.913Z,1002.56
2023-01-13T00:04:08.914Z,1002.62
2023-01-13T00:05:08.922Z,1002.49
2023-01-13T00:06:08.880Z,1002.58
2023-01-13T00:07:08.864Z,1002.69
2023-01-13T00:08:08.857Z,1002.58
2023-01-13T00:09:08.853Z,1002.60
2023-01-13T00:10:08.816Z,1002.51
2023-01-13T00:11:08.814Z,1002.61
2023-01-13T00:12:08.796Z,1002.43
2023-01-13T00:13:08.786Z,1002.40
2023-01-13T00:14:08.788Z,1002.44
2023-01-13T00:15:08.824Z,1002.49
2023-01-13T00:16:08.817Z,1002.48
2023-01-13T00:17:08.727Z,1002.53
2023-01-13T00:18:08.708Z,1002.28
2023-01-13T00:19:08.716Z,1002.39
2023-01-13T00:20:08.715Z,1002.42
2023-01-13T00:21:08.693Z,1002.39
2023-01-13T00:22:08.658Z,1002.39
2023-01-13T00:23:08.643Z,1002.35
2023-01-13T00:24:08.652Z,1002.38
2023-01-13T00:25:08.625Z,1002.41
2023-01-13T00:26:08.613Z,1002.44
2023-01-13T00:27:08.617Z,1002.41
2023-01-13T00:28:08.575Z,1002.41
2023-01-13T00:29:08.576Z,1002.41
2023-01-13T00:30:08.552Z,1002.33
2023-01-13T00:31:08.650Z,1002.26
2023-01-13T00:32:08.545Z,1002.30
2023-01-13T00:33:08.508Z,1002.34
2023-01-13T00:34:08.516Z,1002.41
2023-01-13T00:35:08.491Z,1002.44
2023-01-13T00:36:08.482Z,1002.52
2023-01-13T00:37:08.456Z,1002.49
2023-01-13T00:38:08.449Z,1002.49
2023-01-13T00:39:08.443Z,1002.46
2023-01-13T00:40:08.414Z,1002.44
2023-01-13T00:41:08.425Z,1002.44
2023-01-13T00:42:08.391Z,1002.54
2023-01-13T00:43:08.385Z,1002.43
2023-01-13T00:44:08.378Z,1002.45
2023-01-13T00:45:08.338Z,1002.45
2023-01-13T00:46:08.421Z,1002.51
2023-01-13T00:47:08.320Z,1002.52
2023-01-13T00:48:08.317Z,1002.50
2023-01-13T00:49:08.293Z,1002.46
2023-01-13T00:50:08.280Z,1002.34
2023-01-13T00:51:08.259Z,1002.38
2023-01-13T00:52:08.251Z,1002.43
2023-01-13T00:53:08.240Z,1002.33
2023-01-13T00:54:08.220Z,1002.21
2023-01-13T00:55:08.221Z,1002.23
2023-01-13T00:56:08.183Z,1002.32
2023-01-13T00:57:08.173Z,1002.34
2023-01-13T00:58:08.181Z,1002.33
2023-01-13T00:59:08.170Z,1002.50
2023-01-13T01:00:08.153Z,1002.52
2023-01-13T01:01:08.231Z,1002.62
2023-01-13T01:02:08.256Z,1002.52
2023-01-13T01:03:08.110Z,1002.53
2023-01-13T01:04:08.102Z,1002.60
2023-01-13T01:05:08.092Z,1002.46
2023-01-13T01:06:08.053Z,1002.38
2023-01-13T01:07:08.040Z,1002.40
2023-01-13T01:08:08.034Z,1002.51
2023-01-13T01:09:08.061Z,1002.46
2023-01-13T01:10:08.011Z,1002.37
2023-01-13T01:11:08.010Z,1002.33
2023-01-13T01:12:07.986Z,1002.23
2023-01-13T01:13:07.966Z,1002.04
2023-01-13T01:14:07.964Z,1001.99
2023-01-13T01:15:07.952Z,1002.00
2023-01-13T01:16:07.954Z,1002.06
2023-01-13T01:17:07.918Z,1002.17
2023-01-13T01:18:07.892Z,1002.25
2023-01-13T01:19:07.873Z,1002.35
2023-01-13T01:20:07.886Z,1002.43
2023-01-13T01:21:07.862Z,1002.46
2023-01-13T01:22:07.864Z,1002.52
2023-01-13T01:23:07.835Z,1002.55
2023-01-13T01:24:07.812Z,1002.59
2023-01-13T01:25:07.823Z,1002.52
2023-01-13T01:26:07.795Z,1002.54
2023-01-13T01:27:07.774Z,1002.58
2023-01-13T01:28:07.763Z,1002.55
2023-01-13T01:29:07.744Z,1002.56
2023-01-13T01:30:07.737Z,1002.55
2023-01-13T01:31:07.779Z,1002.53
2023-01-13T01:32:07.709Z,1002.47
2023-01-13T01:33:07.699Z,1002.31
2023-01-13T01:34:07.675Z,1002.24
2023-01-13T01:35:07.677Z,1002.23
2023-01-13T01:36:07.643Z,1002.35
2023-01-13T01:37:07.624Z,1002.34
2023-01-13T01:38:07.627Z,1002.33
2023-01-13T01:39:07.605Z,1002.34
2023-01-13T01:40:07.601Z,1002.32
2023-01-13T01:41:07.592Z,1002.34
2023-01-13T01:42:07.762Z,1002.33
2023-01-13T01:43:07.556Z,1002.29
2023-01-13T01:44:07.590Z,1002.18
2023-01-13T01:45:07.872Z,1002.22
2023-01-13T01:46:07.499Z,1002.36
2023-01-13T01:47:07.535Z,1002.49
2023-01-13T01:48:07.515Z,1002.52
2023-01-13T01:49:07.476Z,1002.51
2023-01-13T01:50:07.476Z,1002.66
2023-01-13T01:51:07.454Z,1002.68
2023-01-13T01:52:07.458Z,1002.72
2023-01-13T01:53:07.470Z,1002.70
2023-01-13T01:54:07.402Z,1002.64
2023-01-13T01:55:07.409Z,1002.69
2023-01-13T01:56:07.368Z,1002.63
2023-01-13T01:57:07.362Z,1002.69
2023-01-13T01:58:07.351Z,1002.69
2023-01-13T01:59:07.339Z,1002.64
2023-01-13T02:00:07.346Z,1002.69
2023-01-13T02:01:07.520Z,1002.65
2023-01-13T02:02:07.388Z,1002.64
2023-01-13T02:03:07.284Z,1002.56
2023-01-13T02:04:07.282Z,1002.51
2023-01-13T02:05:07.270Z,1002.43
2023-01-13T02:06:07.230Z,1002.49
2023-01-13T02:07:07.223Z,1002.59
2023-01-13T02:08:07.200Z,1002.62
2023-01-13T02:09:07.192Z,1002.65
2023-01-13T02:10:07.213Z,1002.68
2023-01-13T02:11:07.170Z,1002.71
2023-01-13T02:13:16.981Z,1002.63
2023-01-13T02:14:16.953Z,1002.64
2023-01-13T02:15:16.984Z,1002.64
2023-01-13T02:16:17.031Z,1002.65
2023-01-13T02:17:16.917Z,1002.61
2023-01-13T02:18:16.917Z,1002.61
2023-01-13T02:19:16.916Z,1002.59
2023-01-13T02:20:16.918Z,1002.59
2023-01-13T02:21:16.863Z,1002.61
2023-01-13T02:22:16.874Z,1002.60
2023-01-13T02:23:16.853Z,1002.59
2023-01-13T02:24:16.826Z,1002.59
2023-01-13T02:25:16.809Z,1002.62
2023-01-13T02:26:16.840Z,1002.60
2023-01-13T02:27:16.787Z,1002.66
2023-01-13T02:28:16.761Z,1002.63
2023-01-13T02:29:16.767Z,1002.65
2023-01-13T02:30:16.737Z,1002.65
2023-01-13T02:31:16.770Z,1002.68
2023-01-13T02:32:16.720Z,1002.63
2023-01-13T02:33:16.717Z,1002.63
2023-01-13T02:34:16.684Z,1002.65
2023-01-13T02:35:16.677Z,1002.59
2023-01-13T02:36:16.684Z,1002.68
2023-01-13T02:37:16.661Z,1002.65
2023-01-13T02:38:16.638Z,1002.71
2023-01-13T02:39:16.626Z,1002.58
2023-01-13T02:40:16.618Z,1002.71
2023-01-13T02:41:16.619Z,1002.62
2023-01-13T02:42:16.587Z,1002.63
2023-01-13T02:43:16.576Z,1002.67
2023-01-13T02:44:16.556Z,1002.69
2023-01-13T02:45:16.543Z,1002.66
2023-01-13T02:46:16.548Z,1002.66
2023-01-13T02:47:16.527Z,1002.65
2023-01-13T02:48:16.520Z,1002.65
2023-01-13T02:49:16.501Z,1002.62
2023-01-13T02:50:16.475Z,1002.61
2023-01-13T02:51:16.486Z,1002.60
2023-01-13T02:52:16.469Z,1002.58
2023-01-13T02:53:16.466Z,1002.64
2023-01-13T02:54:16.425Z,1002.57
2023-01-13T02:55:16.449Z,1002.59
2023-01-13T02:56:16.436Z,1002.57
2023-01-13T02:57:16.386Z,1002.55
2023-01-13T02:58:16.384Z,1002.55
2023-01-13T02:59:16.352Z,1002.53
2023-01-13T03:00:16.273Z,1002.52
2023-01-13T03:01:16.317Z,1002.55
2023-01-13T03:02:16.500Z,1002.53
2023-01-13T03:03:16.207Z,1002.55
2023-01-13T03:04:16.196Z,1002.56
2023-01-13T03:05:16.188Z,1002.54
2023-01-13T03:06:16.186Z,1002.55
2023-01-13T03:07:16.156Z,1002.50
2023-01-13T03:08:16.144Z,1002.49
2023-01-13T03:09:16.140Z,1002.52
2023-01-13T03:10:16.115Z,1002.55
2023-01-13T03:11:16.115Z,1002.54
2023-01-13T03:12:16.097Z,1002.55
2023-01-13T03:13:16.080Z,1002.50
2023-01-13T03:14:16.066Z,1002.53
2023-01-13T03:15:16.058Z,1002.57
2023-01-13T03:16:16.097Z,1002.50
2023-01-13T03:17:16.028Z,1002.54
2023-01-13T03:18:16.028Z,1002.47
2023-01-13T03:19:16.011Z,1002.50
2023-01-13T03:20:15.998Z,1002.48
2023-01-13T03:21:15.987Z,1002.42
2023-01-13T03:22:15.969Z,1002.38
2023-01-13T03:23:15.968Z,1002.36
2023-01-13T03:24:15.940Z,1002.35
2023-01-13T03:25:15.938Z,1002.30
2023-01-13T03:26:15.931Z,1002.31
2023-01-13T03:27:15.898Z,1002.40
2023-01-13T03:28:15.881Z,1002.46
2023-01-13T03:29:15.868Z,1002.48
2023-01-13T03:30:15.847Z,1002.47
2023-01-13T03:31:15.877Z,1002.49
2023-01-13T03:32:15.826Z,1002.50
2023-01-13T03:33:15.817Z,1002.55
2023-01-13T03:34:15.798Z,1002.54
2023-01-13T03:35:15.786Z,1002.55
2023-01-13T03:36:15.784Z,1002.50
2023-01-13T03:37:15.771Z,1002.53
2023-01-13T03:38:15.764Z,1002.50
2023-01-13T03:39:15.745Z,1002.50
2023-01-13T03:40:15.718Z,1002.50
2023-01-13T03:41:15.847Z,1002.53
2023-01-13T03:42:15.705Z,1002.53
2023-01-13T03:43:15.683Z,1002.56
2023-01-13T03:44:15.669Z,1002.55
2023-01-13T03:45:15.658Z,1002.60
2023-01-13T03:46:15.708Z,1002.52
2023-01-13T03:47:15.679Z,1002.58
2023-01-13T03:48:15.623Z,1002.54
2023-01-13T03:49:15.602Z,1002.52
2023-01-13T03:50:15.590Z,1002.47
2023-01-13T03:51:15.603Z,1002.39
2023-01-13T03:52:15.560Z,1002.47
2023-01-13T03:53:15.560Z,1002.44
2023-01-13T03:54:15.568Z,1002.50
2023-01-13T03:55:15.535Z,1002.51
2023-01-13T03:56:15.558Z,1002.49
2023-01-13T03:57:15.516Z,1002.48
2023-01-13T03:58:15.591Z,1002.47
2023-01-13T03:59:15.483Z,1002.46
2023-01-13T04:00:15.458Z,1002.48
2023-01-13T04:01:15.572Z,1002.47
2023-01-13T04:02:15.472Z,1002.49
2023-01-13T04:03:15.422Z,1002.49
2023-01-13T04:04:15.406Z,1002.49
2023-01-13T04:05:15.393Z,1002.52
2023-01-13T04:06:15.399Z,1002.53
2023-01-13T04:07:15.359Z,1002.50
2023-01-13T04:08:15.354Z,1002.52
2023-01-13T04:09:15.360Z,1002.54
2023-01-13T04:10:15.330Z,1002.55
2023-01-13T04:11:15.333Z,1002.57
2023-01-13T04:12:15.292Z,1002.55
2023-01-13T04:13:15.285Z,1002.55
2023-01-13T04:14:15.275Z,1002.56
2023-01-13T04:15:15.261Z,1002.58
2023-01-13T04:16:15.264Z,1002.59
2023-01-13T04:17:15.238Z,1002.59
2023-01-13T04:18:15.246Z,1002.64
2023-01-13T04:19:15.212Z,1002.57
2023-01-13T04:20:15.203Z,1002.54
2023-01-13T04:21:15.192Z,1002.59
2023-01-13T04:22:15.166Z,1002.55
2023-01-13T04:23:15.182Z,1002.54
2023-01-13T04:24:15.136Z,1002.57
2023-01-13T04:25:15.125Z,1002.56
2023-01-13T04:26:15.131Z,1002.52
2023-01-13T04:27:15.103Z,1002.57
2023-01-13T04:28:15.095Z,1002.52
2023-01-13T04:29:15.838Z,1002.48
2023-01-13T04:30:15.081Z,1002.50
2023-01-13T04:31:15.114Z,1002.47
2023-01-13T04:32:15.042Z,1002.44
2023-01-13T04:33:15.033Z,1002.44
2023-01-13T04:34:15.002Z,1002.48
2023-01-13T04:35:15.000Z,1002.54
2023-01-13T04:36:14.986Z,1002.57
2023-01-13T04:37:14.971Z,1002.55
2023-01-13T04:38:14.959Z,1002.57
2023-01-13T04:39:14.955Z,1002.62
2023-01-13T04:40:14.935Z,1002.61
2023-01-13T04:41:14.927Z,1002.58
2023-01-13T04:42:14.925Z,1002.52
2023-01-13T04:43:14.897Z,1002.55
2023-01-13T04:44:14.868Z,1002.58
2023-01-13T04:45:14.867Z,1002.53
2023-01-13T04:46:14.888Z,1002.53
2023-01-13T04:47:14.857Z,1002.54
2023-01-13T04:48:14.820Z,1002.53
2023-01-13T04:49:14.837Z,1002.56
2023-01-13T04:50:14.796Z,1002.53
2023-01-13T04:51:14.814Z,1002.60
2023-01-13T04:52:14.791Z,1002.59
2023-01-13T04:53:14.764Z,1002.60
2023-01-13T04:54:14.737Z,1002.68
2023-01-13T04:55:14.743Z,1002.73
2023-01-13T04:56:14.715Z,1002.76
2023-01-13T04:57:14.717Z,1002.79
2023-01-13T04:58:14.688Z,1002.71
2023-01-13T04:59:14.684Z,1002.70
2023-01-13T05:00:14.672Z,1002.71
2023-01-13T05:01:14.750Z,1002.70
2023-01-13T05:02:14.747Z,1002.55
2023-01-13T05:03:14.641Z,1002.50
2023-01-13T05:04:14.618Z,1002.44
2023-01-13T05:05:14.611Z,1002.44
2023-01-13T05:06:14.588Z,1002.34
2023-01-13T05:07:14.589Z,1002.30
2023-01-13T05:08:14.561Z,1002.33
2023-01-13T05:09:14.549Z,1002.39
2023-01-13T05:10:14.532Z,1002.30
2023-01-13T05:11:14.523Z,1002.42
2023-01-13T05:12:14.520Z,1002.40
2023-01-13T05:13:14.516Z,1002.40
2023-01-13T05:14:14.478Z,1002.40
2023-01-13T05:15:14.477Z,1002.43
2023-01-13T05:16:14.462Z,1002.45
2023-01-13T05:17:14.489Z,1002.48
2023-01-13T05:18:14.429Z,1002.55
2023-01-13T05:19:14.612Z,1002.57
2023-01-13T05:20:14.418Z,1002.52
2023-01-13T05:21:14.392Z,1002.45
2023-01-13T05:22:14.403Z,1002.48
2023-01-13T05:23:14.375Z,1002.52
2023-01-13T05:24:14.342Z,1002.48
2023-01-13T05:25:14.352Z,1002.47
2023-01-13T05:26:14.321Z,1002.52
2023-01-13T05:27:14.329Z,1002.44
2023-01-13T05:28:14.289Z,1002.46
2023-01-13T05:29:14.277Z,1002.49
2023-01-13T05:30:14.296Z,1002.42
2023-01-13T05:31:14.323Z,1002.41
2023-01-13T05:32:14.265Z,1002.39
2023-01-13T05:33:14.232Z,1002.45
2023-01-13T05:34:14.218Z,1002.50
2023-01-13T05:35:14.192Z,1002.47
2023-01-13T05:36:14.181Z,1002.55
2023-01-13T05:37:14.206Z,1002.57
2023-01-13T05:38:14.152Z,1002.61
2023-01-13T05:39:14.152Z,1002.55
2023-01-13T05:40:14.124Z,1002.60
2023-01-13T05:41:14.154Z,1002.55
2023-01-13T05:42:14.123Z,1002.55
2023-01-13T05:43:14.092Z,1002.59
2023-01-13T05:44:14.072Z,1002.61
2023-01-13T05:45:14.078Z,1002.66
2023-01-13T05:46:14.105Z,1002.57
2023-01-13T05:47:14.075Z,1002.62
2023-01-13T05:48:14.036Z,1002.57
2023-01-13T05:49:14.012Z,1002.67
2023-01-13T05:50:14.001Z,1002.65
2023-01-13T05:51:14.021Z,1002.63
2023-01-13T05:52:13.995Z,1002.67
2023-01-13T05:53:13.960Z,1002.66
2023-01-13T05:54:13.942Z,1002.64
2023-01-13T05:55:13.935Z,1002.63
2023-01-13T05:56:13.934Z,1002.70
2023-01-13T05:57:13.981Z,1002.71
2023-01-13T05:58:13.894Z,1002.62
2023-01-13T05:59:13.900Z,1002.59
2023-01-13T06:00:13.863Z,1002.58
2023-01-13T06:01:13.907Z,1002.64
2023-01-13T06:02:13.865Z,1002.68
2023-01-13T06:03:13.852Z,1002.67
2023-01-13T06:04:13.857Z,1002.70
2023-01-13T06:05:13.822Z,1002.69
2023-01-13T06:06:13.793Z,1002.76
2023-01-13T06:07:13.788Z,1002.72
2023-01-13T06:08:13.754Z,1002.72
2023-01-13T06:09:13.748Z,1002.80
2023-01-13T06:10:13.746Z,1002.74
2023-01-13T06:11:13.726Z,1002.75
2023-01-13T06:12:13.723Z,1002.80
2023-01-13T06:13:13.695Z,1002.78
2023-01-13T06:14:13.675Z,1002.84
2023-01-13T06:15:13.669Z,1002.82
2023-01-13T06:16:13.726Z,1002.89
2023-01-13T06:17:13.657Z,1002.84
2023-01-13T06:18:13.616Z,1002.89
2023-01-13T06:19:13.625Z,1002.95
2023-01-13T06:20:13.617Z,1002.96
2023-01-13T06:21:13.617Z,1002.88
2023-01-13T06:22:13.596Z,1002.86
2023-01-13T06:23:13.576Z,1002.86
2023-01-13T06:24:13.556Z,1002.97
2023-01-13T06:25:13.539Z,1002.98
2023-01-13T06:26:13.531Z,1002.94
2023-01-13T06:27:13.522Z,1002.96
2023-01-13T06:28:13.512Z,1003.00
2023-01-13T06:29:13.497Z,1002.92
2023-01-13T06:30:13.464Z,1002.96
2023-01-13T06:31:13.513Z,1002.97
2023-01-13T06:32:13.458Z,1002.95
2023-01-13T06:33:13.421Z,1002.96
2023-01-13T06:34:13.424Z,1003.02
2023-01-13T06:35:13.399Z,1002.97
2023-01-13T06:36:13.397Z,1003.01
2023-01-13T06:37:13.391Z,1002.99
2023-01-13T06:38:13.360Z,1003.00
2023-01-13T06:39:13.347Z,1002.94
2023-01-13T06:40:13.329Z,1003.00
2023-01-13T06:41:13.363Z,1002.94
2023-01-13T06:42:13.348Z,1003.00
2023-01-13T06:43:15.792Z,1002.90
2023-01-13T06:44:13.284Z,1003.01
2023-01-13T06:45:13.444Z,1003.00
2023-01-13T06:46:13.313Z,1003.02
2023-01-13T06:47:13.245Z,1002.96
2023-01-13T06:48:13.242Z,1003.01
2023-01-13T06:49:13.221Z,1002.95
2023-01-13T06:50:13.207Z,1003.02
2023-01-13T06:51:13.194Z,1002.95
2023-01-13T06:52:13.179Z,1002.93
2023-01-13T06:53:13.179Z,1002.98
2023-01-13T06:54:13.142Z,1002.92
2023-01-13T06:55:13.142Z,1003.03
2023-01-13T06:56:13.111Z,1002.91
2023-01-13T06:57:13.121Z,1002.98
2023-01-13T06:58:13.120Z,1002.93
2023-01-13T06:59:13.096Z,1002.92
2023-01-13T07:00:13.113Z,1002.95
2023-01-13T07:01:13.235Z,1002.86
2023-01-13T07:02:13.142Z,1002.99
2023-01-13T07:03:13.062Z,1002.99
2023-01-13T07:04:13.026Z,1002.99
2023-01-13T07:05:13.001Z,1003.04
2023-01-13T07:06:12.996Z,1003.08
2023-01-13T07:07:12.994Z,1003.10
2023-01-13T07:08:13.161Z,1003.08
2023-01-13T07:09:12.953Z,1003.06
2023-01-13T07:10:12.938Z,1003.09
2023-01-13T07:11:12.929Z,1003.09
2023-01-13T07:12:12.902Z,1003.15
2023-01-13T07:13:12.922Z,1003.13
2023-01-13T07:14:12.873Z,1003.08
2023-01-13T07:15:12.884Z,1003.06
2023-01-13T07:16:12.903Z,1003.05
2023-01-13T07:17:12.843Z,1003.08
2023-01-13T07:18:12.855Z,1003.01
2023-01-13T07:19:12.820Z,1002.93
2023-01-13T07:20:12.805Z,1003.03
2023-01-13T07:21:12.844Z,1003.00
2023-01-13T07:22:12.792Z,1003.03
2023-01-13T07:23:12.784Z,1003.04
2023-01-13T07:24:12.752Z,1003.01
2023-01-13T07:25:12.743Z,1003.06
2023-01-13T07:26:12.723Z,1003.02
2023-01-13T07:27:12.717Z,1003.15
2023-01-13T07:28:12.731Z,1003.14
2023-01-13T07:29:12.683Z,1003.16
2023-01-13T07:30:12.685Z,1003.17
2023-01-13T07:31:12.700Z,1003.19
2023-01-13T07:32:12.637Z,1003.22
2023-01-13T07:33:12.662Z,1003.21
2023-01-13T07:34:12.626Z,1003.25
2023-01-13T07:35:12.605Z,1003.25
2023-01-13T07:36:12.596Z,1003.34
2023-01-13T07:37:12.589Z,1003.32
2023-01-13T07:38:12.584Z,1003.26
2023-01-13T07:39:12.555Z,1003.30
2023-01-13T07:40:12.570Z,1003.31
2023-01-13T07:41:12.534Z,1003.26
2023-01-13T07:42:12.518Z,1003.30
2023-01-13T07:43:12.525Z,1003.23
2023-01-13T07:44:12.484Z,1003.25
2023-01-13T07:45:12.563Z,1003.37
2023-01-13T07:46:12.543Z,1003.28
2023-01-13T07:47:12.440Z,1003.35
2023-01-13T07:48:12.493Z,1003.34
2023-01-13T07:49:12.417Z,1003.45
2023-01-13T07:50:12.420Z,1003.32
2023-01-13T07:51:12.383Z,1003.29
2023-01-13T07:52:12.383Z,1003.29
2023-01-13T07:53:12.385Z,1003.36
2023-01-13T07:54:12.358Z,1003.49
2023-01-13T07:55:12.349Z,1003.44
2023-01-13T07:56:12.339Z,1003.43
2023-01-13T07:57:12.309Z,1003.47
2023-01-13T07:58:12.320Z,1003.48
2023-01-13T07:59:12.294Z,1003.47
2023-01-13T08:00:13.033Z,1003.32
2023-01-13T08:01:12.483Z,1003.36
2023-01-13T08:02:12.508Z,1003.35
2023-01-13T08:03:12.248Z,1003.33
2023-01-13T08:04:12.218Z,1003.32
2023-01-13T08:05:12.232Z,1003.33
2023-01-13T08:06:12.210Z,1003.35
2023-01-13T08:07:12.178Z,1003.33
2023-01-13T08:08:12.191Z,1003.41
2023-01-13T08:09:12.151Z,1003.40
2023-01-13T08:10:12.161Z,1003.35
2023-01-13T08:11:12.127Z,1003.43
2023-01-13T08:13:19.142Z,1003.45
2023-01-13T08:14:12.087Z,1003.59
2023-01-13T08:15:12.071Z,1003.61
2023-01-13T08:16:12.175Z,1003.51
2023-01-13T08:17:12.049Z,1003.60
2023-01-13T08:18:12.064Z,1003.56
2023-01-13T08:19:12.033Z,1003.62
2023-01-13T08:20:12.012Z,1003.50
2023-01-13T08:21:12.014Z,1003.53
2023-01-13T08:22:11.982Z,1003.55
2023-01-13T08:23:12.001Z,1003.55
2023-01-13T08:24:11.971Z,1003.63
2023-01-13T08:25:11.937Z,1003.52
2023-01-13T08:26:11.935Z,1003.62
2023-01-13T08:27:11.916Z,1003.53
2023-01-13T08:28:11.921Z,1003.60
2023-01-13T08:29:14.659Z,1003.58
2023-01-13T08:30:11.891Z,1003.65
2023-01-13T08:31:11.918Z,1003.67
2023-01-13T08:32:11.853Z,1003.60
2023-01-13T08:33:11.849Z,1003.73
2023-01-13T08:34:11.845Z,1003.77
2023-01-13T08:35:11.805Z,1003.82
2023-01-13T08:36:11.796Z,1003.76
2023-01-13T08:37:11.788Z,1003.81
2023-01-13T08:38:11.782Z,1003.78
2023-01-13T08:39:11.751Z,1003.79
2023-01-13T08:40:11.752Z,1003.75
2023-01-13T08:41:11.721Z,1003.72
2023-01-13T08:42:11.718Z,1003.84
2023-01-13T08:43:11.719Z,1003.82
2023-01-13T08:44:11.687Z,1003.83
2023-01-13T08:45:11.668Z,1003.92
2023-01-13T08:46:11.767Z,1003.82
2023-01-13T08:47:11.643Z,1003.85
2023-01-13T08:48:11.654Z,1003.79
2023-01-13T08:49:11.625Z,1003.83
2023-01-13T08:50:11.605Z,1003.82
2023-01-13T08:51:11.600Z,1003.77
2023-01-13T08:52:11.595Z,1003.84
2023-01-13T08:53:11.606Z,1003.85
2023-01-13T08:54:11.560Z,1003.80
2023-01-13T08:55:11.580Z,1003.82
2023-01-13T08:56:11.530Z,1003.91
2023-01-13T08:57:11.562Z,1003.90
2023-01-13T08:58:15.701Z,1003.89
2023-01-13T08:59:11.488Z,1003.90
2023-01-13T09:00:11.479Z,1003.87
2023-01-13T09:01:11.603Z,1003.94
2023-01-13T09:02:11.565Z,1004.02
2023-01-13T09:03:11.472Z,1003.93
2023-01-13T09:04:11.495Z,1003.98
2023-01-13T09:05:11.429Z,1003.96
2023-01-13T09:06:11.403Z,1003.90
2023-01-13T09:07:11.378Z,1003.96
2023-01-13T09:08:11.399Z,1004.00
2023-01-13T09:09:11.363Z,1004.02
2023-01-13T09:10:11.372Z,1003.98
2023-01-13T09:11:11.350Z,1004.01
2023-01-13T09:12:11.329Z,1004.02
2023-01-13T09:13:11.318Z,1004.17
2023-01-13T09:14:11.299Z,1003.93
2023-01-13T09:15:11.276Z,1004.00
2023-01-13T09:16:11.327Z,1004.01
2023-01-13T09:17:11.257Z,1003.99
2023-01-13T09:18:11.290Z,1004.08
2023-01-13T09:19:11.241Z,1004.00
2023-01-13T09:20:11.228Z,1004.09
2023-01-13T09:21:11.205Z,1004.04
2023-01-13T09:22:11.190Z,1004.11
2023-01-13T09:23:11.583Z,1004.07
2023-01-13T09:24:11.173Z,1004.00
2023-01-13T09:25:11.141Z,1004.02
2023-01-13T09:26:11.139Z,1004.00
2023-01-13T09:27:11.118Z,1004.04
2023-01-13T09:28:11.128Z,1004.02
2023-01-13T09:29:11.116Z,1004.00
2023-01-13T09:30:11.073Z,1004.03
2023-01-13T09:31:11.076Z,1004.02
2023-01-13T09:32:11.074Z,1003.98
2023-01-13T09:33:11.063Z,1004.01
2023-01-13T09:34:11.034Z,1004.02
2023-01-13T09:35:11.033Z,1003.97
2023-01-13T09:36:11.002Z,1004.03
2023-01-13T09:37:10.986Z,1003.99
2023-01-13T09:38:10.999Z,1004.09
2023-01-13T09:39:10.981Z,1004.01
2023-01-13T09:40:10.943Z,1004.06
2023-01-13T09:41:10.933Z,1004.08
2023-01-13T09:42:10.919Z,1004.05
2023-01-13T09:43:10.921Z,1004.12
2023-01-13T09:44:10.893Z,1004.12
2023-01-13T09:45:10.893Z,1004.12
2023-01-13T09:46:10.922Z,1004.12
2023-01-13T09:47:12.074Z,1004.15
2023-01-13T09:48:10.881Z,1004.10
2023-01-13T09:49:10.826Z,1004.11
2023-01-13T09:50:10.812Z,1004.17
2023-01-13T09:51:10.858Z,1004.15
2023-01-13T09:52:10.813Z,1004.24
2023-01-13T09:53:10.810Z,1004.23
2023-01-13T09:54:10.779Z,1004.20
2023-01-13T09:55:10.743Z,1004.28
2023-01-13T09:56:10.742Z,1004.26
2023-01-13T09:57:10.718Z,1004.42
2023-01-13T09:58:10.739Z,1004.36
2023-01-13T09:59:10.684Z,1004.38
2023-01-13T10:00:10.696Z,1004.30
2023-01-13T10:01:10.728Z,1004.41
2023-01-13T10:02:10.655Z,1004.39
2023-01-13T10:03:10.693Z,1004.43
2023-01-13T10:04:10.632Z,1004.37
2023-01-13T10:05:10.633Z,1004.39
2023-01-13T10:06:10.608Z,1004.30
2023-01-13T10:07:10.588Z,1004.38
2023-01-13T10:08:10.611Z,1004.34
2023-01-13T10:09:10.553Z,1004.29
2023-01-13T10:10:10.553Z,1004.29
2023-01-13T10:11:10.529Z,1004.29
2023-01-13T10:12:10.559Z,1004.38
2023-01-13T10:13:10.537Z,1004.39
2023-01-13T10:14:10.546Z,1004.35
2023-01-13T10:15:10.486Z,1004.34
2023-01-13T10:16:10.526Z,1004.31
2023-01-13T10:17:10.465Z,1004.37
2023-01-13T10:18:10.444Z,1004.34
2023-01-13T10:19:10.485Z,1004.34
2023-01-13T10:20:10.434Z,1004.33
2023-01-13T10:21:10.441Z,1004.29
2023-01-13T10:22:10.420Z,1004.32
2023-01-13T10:23:10.394Z,1004.27
2023-01-13T10:24:10.390Z,1004.26
2023-01-13T10:25:10.358Z,1004.35
2023-01-13T10:26:10.451Z,1004.27
2023-01-13T10:27:10.355Z,1004.28
2023-01-13T10:28:10.324Z,1004.22
2023-01-13T10:29:10.313Z,1004.26
2023-01-13T10:30:10.290Z,1004.19
2023-01-13T10:31:10.331Z,1004.26
2023-01-13T10:32:10.278Z,1004.36
2023-01-13T10:33:10.262Z,1004.41
2023-01-13T10:34:10.274Z,1004.32
2023-01-13T10:35:10.216Z,1004.28
2023-01-13T10:36:10.212Z,1004.27
2023-01-13T10:37:10.227Z,1004.44
2023-01-13T10:38:10.198Z,1004.32
2023-01-13T10:39:10.211Z,1004.28
2023-01-13T10:40:10.162Z,1004.32
2023-01-13T10:41:10.139Z,1004.33
2023-01-13T10:42:10.131Z,1004.35
2023-01-13T10:43:10.145Z,1004.31
2023-01-13T10:44:10.140Z,1004.34
2023-01-13T10:45:10.089Z,1004.32
2023-01-13T10:46:10.090Z,1004.24
2023-01-13T10:47:10.100Z,1004.38
2023-01-13T10:48:10.056Z,1004.32
2023-01-13T10:49:10.041Z,1004.34
2023-01-13T10:50:10.071Z,1004.35
2023-01-13T10:51:10.009Z,1004.44
2023-01-13T10:52:10.050Z,1004.36
2023-01-13T10:53:09.991Z,1004.46
2023-01-13T10:54:09.990Z,1004.55
2023-01-13T10:55:09.960Z,1004.50
2023-01-13T10:56:09.956Z,1004.56
2023-01-13T10:57:09.921Z,1004.55
2023-01-13T10:58:09.913Z,1004.54
2023-01-13T10:59:09.912Z,1004.61
2023-01-13T11:00:09.920Z,1004.46
2023-01-13T11:01:09.925Z,1004.49
2023-01-13T11:02:24.180Z,1004.71
2023-01-13T11:03:10.847Z,1004.56
2023-01-13T11:04:09.862Z,1004.52
2023-01-13T11:05:09.903Z,1004.49
2023-01-13T11:06:09.813Z,1004.51
2023-01-13T11:07:09.790Z,1004.51
2023-01-13T11:08:09.782Z,1004.57
2023-01-13T11:09:09.774Z,1004.58
2023-01-13T11:10:09.753Z,1004.56
2023-01-13T11:11:09.733Z,1004.61
2023-01-13T11:12:09.733Z,1004.57
2023-01-13T11:13:09.744Z,1004.57
2023-01-13T11:14:10.226Z,1004.51
2023-01-13T11:15:09.681Z,1004.56
2023-01-13T11:16:09.707Z,1004.42
2023-01-13T11:17:09.672Z,1004.51
2023-01-13T11:18:09.646Z,1004.51
2023-01-13T11:19:09.658Z,1004.48
2023-01-13T11:20:09.632Z,1004.50
2023-01-13T11:21:09.594Z,1004.50
2023-01-13T11:22:09.588Z,1004.56
2023-01-13T11:23:09.575Z,1004.61
2023-01-13T11:24:09.587Z,1004.51
2023-01-13T11:25:09.553Z,1004.51
2023-01-13T11:26:09.553Z,1004.55
2023-01-13T11:27:09.530Z,1004.59
2023-01-13T11:28:09.517Z,1004.62
2023-01-13T11:29:09.512Z,1004.63
2023-01-13T11:30:09.495Z,1004.53
2023-01-13T11:31:09.519Z,1004.65
2023-01-13T11:32:09.482Z,1004.61
2023-01-13T11:33:09.438Z,1004.72
2023-01-13T11:34:09.449Z,1004.62
2023-01-13T11:35:09.418Z,1004.74
2023-01-13T11:36:09.409Z,1004.81
2023-01-13T11:37:09.400Z,1004.72
2023-01-13T11:38:09.374Z,1004.83
2023-01-13T11:39:09.376Z,1004.79
2023-01-13T11:40:09.359Z,1004.83
2023-01-13T11:41:09.328Z,1004.80
2023-01-13T11:42:09.326Z,1004.69
2023-01-13T11:43:09.334Z,1004.71
2023-01-13T11:44:09.309Z,1004.76
2023-01-13T11:45:09.285Z,1004.71
2023-01-13T11:46:09.320Z,1004.73
2023-01-13T11:47:09.250Z,1004.72
2023-01-13T11:48:09.258Z,1004.77
2023-01-13T11:49:09.227Z,1004.69
2023-01-13T11:50:09.244Z,1004.69
2023-01-13T11:51:09.211Z,1004.74
2023-01-13T11:52:09.187Z,1004.67
2023-01-13T11:53:09.183Z,1004.85
2023-01-13T11:54:09.171Z,1004.74
2023-01-13T11:55:09.179Z,1004.66
2023-01-13T11:56:09.138Z,1004.67
2023-01-13T11:57:09.160Z,1004.62
2023-01-13T11:58:09.108Z,1004.70
2023-01-13T11:59:09.100Z,1004.56
2023-01-13T12:00:09.119Z,1004.58
2023-01-13T12:01:09.121Z,1004.65
2023-01-13T12:02:09.248Z,1004.54
2023-01-13T12:03:09.123Z,1004.66
2023-01-13T12:04:09.043Z,1004.67
2023-01-13T12:05:09.047Z,1004.59
2023-01-13T12:06:09.011Z,1004.55
2023-01-13T12:07:09.022Z,1004.69